Time;durP1;ratioP1;P1;durP2;ratioP2;P2;SDS_P1;SDS_P2;PMS_P1;PMS_P2;Temp;Humidity;BMP_temperature;BMP_pressure;BME280_temperature;BME280_humidity;BME280_pressure;Samples;Min_cycle;Max_cycle;Signal;HPM_P1;HPM_P2
2021/10/08 00:00:35;;;;;;;4.55;2.65;;;;;;;10.66;74.67;101009.78;1088395;54;20034;-78
2021/10/08 00:01:37;;;;;;;5.18;2.90;;;;;;;10.65;74.39;101010.75;1088391;54;20030;-79
2021/10/08 00:02:41;;;;;;;6.07;2.92;;;;;;;10.64;74.31;101006.38;1089279;46;20019;-78
2021/10/08 00:03:43;;;;;;;5.10;2.90;;;;;;;10.66;74.24;101004.44;1088404;54;20018;-78
2021/10/08 00:04:50;;;;;;;5.95;3.20;;;;;;;10.65;74.67;101010.75;1088144;54;20022;-77
2021/10/08 00:05:54;;;;;;;4.68;2.85;;;;;;;10.67;74.37;101008.81;1088064;54;20038;-78
2021/10/08 00:07:05;;;;;;;4.53;2.70;;;;;;;10.64;74.54;101009.06;1088428;54;20037;-78
2021/10/08 00:08:07;;;;;;;4.63;3.03;;;;;;;10.61;74.41;101002.13;1088663;47;20022;-77
2021/10/08 00:09:11;;;;;;;5.43;3.25;;;;;;;10.65;74.62;101005.41;1088206;54;20018;-78
2021/10/08 00:10:13;;;;;;;5.22;2.95;;;;;;;10.63;74.38;101004.69;1090039;39;20756;-78
2021/10/08 00:11:18;;;;;;;5.93;3.40;;;;;;;10.58;74.79;101009.56;1087850;54;20073;-77
2021/10/08 00:12:20;;;;;;;5.93;3.13;;;;;;;10.58;74.72;100998.84;1088104;54;20035;-78
2021/10/08 00:13:24;;;;;;;7.43;3.72;;;;;;;10.57;74.76;101002.50;1088128;54;20031;-77
2021/10/08 00:14:28;;;;;;;5.20;3.40;;;;;;;10.56;74.69;101000.78;1088113;54;20034;-78
2021/10/08 00:15:35;;;;;;;6.70;3.45;;;;;;;10.55;74.94;100994.56;1091791;46;20054;-78
2021/10/08 00:16:36;;;;;;;5.55;3.17;;;;;;;10.52;74.93;100997.50;1090410;46;20015;-79
2021/10/08 00:17:41;;;;;;;5.88;3.10;;;;;;;10.54;75.09;100997.38;1088372;54;20110;-78
2021/10/08 00:18:42;;;;;;;6.68;2.83;;;;;;;10.53;75.11;101001.84;1091005;46;20031;-77
2021/10/08 00:19:47;;;;;;;5.40;3.35;;;;;;;10.55;75.16;101002.59;1091774;46;20026;-78
2021/10/08 00:20:48;;;;;;;5.18;3.00;;;;;;;10.57;74.89;100998.00;1088227;54;20039;-78
2021/10/08 00:21:55;;;;;;;4.85;2.95;;;;;;;10.53;75.05;100995.69;1088286;54;20081;-77
2021/10/08 00:22:57;;;;;;;6.00;3.28;;;;;;;10.48;75.22;101003.22;1088279;54;20030;-78
2021/10/08 00:24:05;;;;;;;5.22;3.60;;;;;;;10.49;75.18;100994.19;1088368;54;20025;-78
2021/10/08 00:25:08;;;;;;;5.30;3.25;;;;;;;10.47;75.33;100999.69;1088230;54;20030;-78
2021/10/08 00:26:18;;;;;;;8.00;3.83;;;;;;;10.41;75.59;101005.53;1088361;54;20070;-77
2021/10/08 00:27:20;;;;;;;6.20;3.72;;;;;;;10.39;75.76;101005.63;1088609;54;20049;-78
2021/10/08 00:28:31;;;;;;;6.22;3.10;;;;;;;10.36;75.70;101005.84;1090362;46;20045;-78
2021/10/08 00:29:33;;;;;;;4.78;2.90;;;;;;;10.39;75.55;101010.97;1088894;54;20035;-78
2021/10/08 00:30:37;;;;;;;7.05;4.10;;;;;;;10.39;75.67;101004.78;1088882;54;20026;-77
2021/10/08 00:31:39;;;;;;;6.28;3.50;;;;;;;10.39;75.67;101004.78;1088848;54;20054;-78
2021/10/08 00:32:44;;;;;;;7.32;3.85;;;;;;;10.40;75.88;101010.00;1088673;54;20046;-78
2021/10/08 00:33:46;;;;;;;5.85;3.92;;;;;;;10.39;75.64;101013.63;1088814;54;20098;-78
2021/10/08 00:34:50;;;;;;;8.73;3.83;;;;;;;10.35;76.07;101013.97;1093099;31;20772;-78
2021/10/08 00:35:52;;;;;;;7.57;3.80;;;;;;;10.34;76.11;101012.28;1088772;54;20031;-77
2021/10/08 00:36:59;;;;;;;6.82;3.90;;;;;;;10.26;76.12;101012.88;1088736;54;20026;-78
2021/10/08 00:38:03;;;;;;;6.68;3.50;;;;;;;10.25;76.45;101004.00;1088564;54;20034;-78
2021/10/08 00:39:07;;;;;;;6.43;3.72;;;;;;;10.27;76.23;101011.91;1088692;54;20037;-77
2021/10/08 00:40:13;;;;;;;7.40;4.32;;;;;;;10.32;76.37;101004.38;1088659;54;20034;-78
2021/10/08 00:41:14;;;;;;;6.47;3.55;;;;;;;10.35;76.08;101000.59;1088712;54;20078;-78
2021/10/08 00:42:22;;;;;;;5.38;3.03;;;;;;;10.35;76.26;100997.94;1088719;54;20726;-78
2021/10/08 00:43:24;;;;;;;6.72;3.30;;;;;;;10.38;76.14;101008.44;1088557;54;20732;-78
2021/10/08 00:44:31;;;;;;;5.57;3.40;;;;;;;10.37;76.06;101007.59;1088756;54;20019;-77
2021/10/08 00:45:33;;;;;;;8.15;3.30;;;;;;;10.35;76.17;101004.16;1088636;54;20030;-78
2021/10/08 00:46:38;;;;;;;11.18;6.22;;;;;;;10.29;76.39;101015.31;1088757;54;20038;-78
2021/10/08 00:47:39;;;;;;;6.45;4.07;;;;;;;10.30;76.02;101008.97;1088730;54;20777;-77
2021/10/08 00:48:44;;;;;;;9.13;4.10;;;;;;;10.24;76.30;101013.00;1088619;54;20037;-77
2021/10/08 00:49:45;;;;;;;9.05;4.55;;;;;;;10.23;76.49;101005.09;1088640;54;20030;-78
2021/10/08 00:50:53;;;;;;;7.43;3.53;;;;;;;10.22;76.15;101008.72;1089580;39;20910;-78
2021/10/08 00:51:57;;;;;;;6.95;4.18;;;;;;;10.22;76.40;101006.06;1088733;54;20046;-78
2021/10/08 00:53:01;;;;;;;6.65;4.05;;;;;;;10.13;76.55;101008.47;1088722;54;20041;-77
2021/10/08 00:54:03;;;;;;;6.05;3.63;;;;;;;10.15;76.33;101008.38;1088713;54;20038;-78
2021/10/08 00:55:08;;;;;;;7.97;4.47;;;;;;;10.13;76.36;101007.63;1088492;54;20088;-78
2021/10/08 00:56:10;;;;;;;8.45;3.88;;;;;;;10.15;76.33;101006.53;1088731;54;20031;-78
2021/10/08 00:57:15;;;;;;;9.27;4.97;;;;;;;10.15;76.45;101006.53;1088704;54;20064;-78
2021/10/08 00:58:18;;;;;;;7.38;4.53;;;;;;;10.16;76.63;101015.41;1088682;54;20659;-78
2021/10/08 00:59:23;;;;;;;8.75;4.10;;;;;;;10.13;76.47;101005.81;1088629;54;20026;-77
2021/10/08 01:00:25;;;;;;;7.68;4.07;;;;;;;10.15;76.45;101019.91;1088452;54;20765;-77
2021/10/08 01:01:30;;;;;;;9.20;4.50;;;;;;;10.19;76.25;101009.00;1088696;54;20038;-77
2021/10/08 01:02:32;;;;;;;7.43;3.45;;;;;;;10.20;76.14;101010.69;1088697;54;20058;-78
2021/10/08 01:03:37;;;;;;;5.90;3.75;;;;;;;10.19;76.37;101003.66;1088701;54;20038;-77
2021/10/08 01:04:39;;;;;;;6.60;3.47;;;;;;;10.21;76.21;101002.56;1088642;54;20057;-78
2021/10/08 01:05:44;;;;;;;6.72;3.47;;;;;;;10.20;76.13;101006.19;1088455;54;20030;-78
2021/10/08 01:06:46;;;;;;;7.80;3.88;;;;;;;10.23;76.09;101005.97;1088689;54;20789;-79
2021/10/08 01:07:53;;;;;;;6.22;3.83;;;;;;;10.25;76.16;101000.47;1088729;54;20034;-78
2021/10/08 01:08:54;;;;;;;5.32;3.25;;;;;;;10.24;76.19;101001.44;1088646;54;20914;-77
2021/10/08 01:09:58;;;;;;;6.13;3.75;;;;;;;10.22;75.79;100993.56;1088670;54;20034;-78
2021/10/08 01:11:01;;;;;;;7.57;3.42;;;;;;;10.24;75.88;100986.28;1088528;54;20043;-77
2021/10/08 01:12:06;;;;;;;7.03;3.83;;;;;;;10.15;76.13;100989.69;1089032;46;20037;-78
2021/10/08 01:13:10;;;;;;;7.03;3.85;;;;;;;10.14;76.04;100994.16;1088667;54;20034;-78
2021/10/08 01:14:14;;;;;;;7.43;3.92;;;;;;;10.14;76.25;100988.81;1088721;54;20023;-77
2021/10/08 01:15:16;;;;;;;6.90;3.35;;;;;;;10.18;76.18;100985.91;1088419;54;20050;-77
2021/10/08 01:16:24;;;;;;;6.75;3.65;;;;;;;10.17;76.24;100989.53;1088695;54;20034;-77
2021/10/08 01:17:26;;;;;;;6.35;3.25;;;;;;;10.19;76.35;100987.63;1088671;54;20061;-78
2021/10/08 01:18:30;;;;;;;7.00;3.35;;;;;;;10.20;75.77;100986.66;1088694;54;20107;-77
2021/10/08 01:19:32;;;;;;;6.82;3.17;;;;;;;10.18;76.01;100991.25;1088683;54;20034;-78
2021/10/08 01:20:39;;;;;;;6.35;3.40;;;;;;;10.15;76.09;100985.16;1088678;54;20031;-78
2021/10/08 01:21:41;;;;;;;9.23;3.58;;;;;;;10.15;76.09;100974.47;1088713;54;20030;-78
2021/10/08 01:22:45;;;;;;;6.43;3.30;;;;;;;10.20;76.13;100978.63;1088585;54;20022;-79
2021/10/08 01:23:47;;;;;;;5.65;3.42;;;;;;;10.19;76.07;100985.78;1088685;54;20037;-77
2021/10/08 01:24:51;;;;;;;7.60;4.05;;;;;;;10.11;76.30;100991.72;1088655;54;20658;-78
2021/10/08 01:25:52;;;;;;;6.47;3.78;;;;;;;10.04;76.26;100989.66;1089594;46;20027;-78
2021/10/08 01:26:56;;;;;;;8.15;3.80;;;;;;;9.98;76.79;100989.13;1088644;54;20034;-78
2021/10/08 01:28:00;;;;;;;9.27;4.13;;;;;;;9.93;76.67;100983.31;1088507;54;20057;-77
2021/10/08 01:29:04;;;;;;;8.35;3.80;;;;;;;9.94;76.74;100978.81;1088611;54;20031;-78
2021/10/08 01:30:07;;;;;;;7.40;4.00;;;;;;;9.92;77.00;100983.44;1088589;54;20022;-77
2021/10/08 01:31:12;;;;;;;7.03;3.30;;;;;;;9.94;76.85;100984.16;1088636;54;20026;-78
2021/10/08 01:32:13;;;;;;;7.57;3.85;;;;;;;9.95;76.54;100981.38;1088660;54;20054;-77
2021/10/08 01:33:18;;;;;;;7.70;3.75;;;;;;;9.92;76.99;100980.75;1088491;54;20698;-77
2021/10/08 01:34:20;;;;;;;6.10;3.38;;;;;;;9.98;76.73;100982.94;1088973;46;20041;-78
2021/10/08 01:35:25;;;;;;;5.22;3.47;;;;;;;10.04;76.61;100977.13;1088585;54;20034;-78
2021/10/08 01:36:30;;;;;;;6.80;3.15;;;;;;;10.04;76.45;100979.81;1088671;54;20045;-78
2021/10/08 01:37:34;;;;;;;5.18;3.40;;;;;;;10.06;76.57;100972.53;1088561;54;20065;-78
2021/10/08 01:38:36;;;;;;;5.03;2.97;;;;;;;10.10;76.38;100978.47;1088304;54;20061;-78
2021/10/08 01:39:40;;;;;;;5.25;3.20;;;;;;;10.09;76.50;100976.78;1088134;54;20702;-78
2021/10/08 01:40:41;;;;;;;6.38;3.33;;;;;;;10.09;76.43;100985.66;1088272;54;20017;-78
2021/10/08 01:41:45;;;;;;;6.22;3.38;;;;;;;10.09;76.35;100988.31;1088300;54;20034;-79
2021/10/08 01:42:48;;;;;;;5.22;2.95;;;;;;;10.13;76.46;100986.25;1088365;54;20030;-77
2021/10/08 01:43:52;;;;;;;6.60;3.50;;;;;;;10.13;76.10;100989.78;1088369;54;20021;-78
2021/10/08 01:44:54;;;;;;;7.05;3.55;;;;;;;10.12;76.39;100981.88;1088293;54;20018;-78
2021/10/08 01:45:58;;;;;;;7.70;3.88;;;;;;;10.09;76.37;100988.31;1088302;54;20022;-77
2021/10/08 01:47:00;;;;;;;5.45;3.80;;;;;;;10.08;76.32;100983.09;1088990;46;20019;-78
2021/10/08 01:48:04;;;;;;;8.45;3.70;;;;;;;10.06;76.45;100988.56;1088462;54;20018;-77
2021/10/08 01:49:12;;;;;;;5.68;3.25;;;;;;;10.05;76.89;100984.19;1089782;46;20038;-79
2021/10/08 01:50:17;;;;;;;7.47;4.65;;;;;;;10.04;76.67;100985.13;1088308;54;20026;-78
2021/10/08 01:51:23;;;;;;;5.53;3.47;;;;;;;10.05;76.42;100986.84;1088698;46;20026;-78
2021/10/08 01:52:27;;;;;;;6.07;3.65;;;;;;;10.05;76.30;100984.19;1088484;54;20047;-77
2021/10/08 01:53:32;;;;;;;6.88;3.85;;;;;;;10.01;76.53;100990.75;1095776;39;20345;-77
2021/10/08 01:54:34;;;;;;;7.78;3.70;;;;;;;9.98;76.78;100996.31;1089537;46;20026;-77
2021/10/08 01:55:47;;;;;;;8.45;4.50;;;;;;;9.97;76.84;100992.78;1088337;54;20070;-78
2021/10/08 01:56:48;;;;;;;5.22;3.50;;;;;;;10.02;76.79;100995.09;1088495;54;20065;-78
2021/10/08 01:57:52;;;;;;;5.30;3.40;;;;;;;10.02;76.69;100988.91;1088435;54;20021;-77
2021/10/08 01:58:58;;;;;;;5.80;3.42;;;;;;;10.03;76.46;100980.75;1089897;46;20026;-77
2021/10/08 01:59:59;;;;;;;7.07;4.07;;;;;;;10.06;76.67;100983.22;1089964;46;20041;-78
2021/10/08 02:01:07;;;;;;;5.45;3.40;;;;;;;10.09;76.68;100988.31;1088365;54;20030;-78
2021/10/08 02:02:09;;;;;;;5.25;3.15;;;;;;;10.13;76.30;100980.91;1096286;46;20098;-78
2021/10/08 02:03:19;;;;;;;5.97;3.70;;;;;;;10.09;76.29;100984.78;1088452;54;20030;-79
2021/10/08 02:04:21;;;;;;;6.65;3.72;;;;;;;10.11;76.46;100986.38;1088543;54;20039;-78
2021/10/08 02:05:25;;;;;;;6.72;3.80;;;;;;;10.15;76.11;100987.00;1088365;54;20015;-77
2021/10/08 02:06:29;;;;;;;6.60;3.85;;;;;;;10.12;76.21;100976.53;1088388;54;20055;-78
2021/10/08 02:07:33;;;;;;;5.88;4.03;;;;;;;10.14;76.02;100986.13;1088501;54;20046;-78
2021/10/08 02:08:38;;;;;;;5.80;3.47;;;;;;;10.09;76.03;100985.66;1088412;54;20031;-78
2021/10/08 02:09:39;;;;;;;5.45;3.65;;;;;;;10.17;76.07;100981.53;1092186;46;20030;-78
2021/10/08 02:10:43;;;;;;;5.97;3.22;;;;;;;10.14;75.92;100991.47;1088367;54;20371;-78
2021/10/08 02:11:45;;;;;;;5.15;3.53;;;;;;;10.15;76.08;100990.50;1092375;46;20041;-77
2021/10/08 02:12:49;;;;;;;6.97;3.20;;;;;;;10.13;75.88;100987.09;1088302;46;20017;-78
2021/10/08 02:13:51;;;;;;;5.38;3.25;;;;;;;10.17;76.11;100990.38;1088442;47;20027;-76
2021/10/08 02:14:55;;;;;;;5.90;3.15;;;;;;;10.17;75.94;100985.03;1088315;54;20019;-76
2021/10/08 02:15:57;;;;;;;5.20;3.30;;;;;;;10.19;75.79;100977.75;1089364;46;20015;-77
2021/10/08 02:17:02;;;;;;;5.60;3.65;;;;;;;10.15;75.81;100982.50;1088487;54;20015;-77
2021/10/08 02:18:07;;;;;;;6.35;3.88;;;;;;;10.10;75.83;100979.34;1088432;54;20030;-77
2021/10/08 02:19:09;;;;;;;5.68;3.30;;;;;;;10.06;75.93;100983.22;1088561;54;20014;-77
2021/10/08 02:20:14;;;;;;;7.03;3.85;;;;;;;9.98;76.07;100985.63;1090104;46;20018;-77
2021/10/08 02:21:15;;;;;;;6.80;4.20;;;;;;;9.95;76.48;100991.19;1088501;54;20035;-77
2021/10/08 02:22:20;;;;;;;6.50;3.63;;;;;;;9.98;76.50;100990.97;1088532;54;20023;-78
2021/10/08 02:23:24;;;;;;;6.35;3.38;;;;;;;9.98;76.24;100991.81;1088428;54;20034;-77
2021/10/08 02:24:28;;;;;;;6.63;3.85;;;;;;;9.96;76.35;100990.22;1091995;46;20030;-78
2021/10/08 02:25:30;;;;;;;6.50;3.60;;;;;;;10.00;76.32;100983.69;1088406;54;20041;-76
2021/10/08 02:26:35;;;;;;;5.88;3.88;;;;;;;10.00;76.23;100983.69;1088383;54;20034;-77
2021/10/08 02:27:37;;;;;;;5.32;3.08;;;;;;;10.03;76.32;100983.44;1089930;46;20037;-78
2021/10/08 02:28:41;;;;;;;5.43;3.35;;;;;;;10.10;75.89;100986.50;1087947;54;20030;-77
2021/10/08 02:29:43;;;;;;;6.35;3.45;;;;;;;10.09;76.09;100985.66;1089988;46;20039;-78
2021/10/08 02:30:47;;;;;;;5.55;3.30;;;;;;;10.10;76.07;100984.69;1088237;54;20042;-77
2021/10/08 02:31:54;;;;;;;6.18;3.55;;;;;;;10.11;76.09;100990.88;1099098;46;20022;-79
2021/10/08 02:32:59;;;;;;;7.63;3.72;;;;;;;10.10;76.09;100984.69;1088489;54;20030;-77
2021/10/08 02:34:01;;;;;;;5.72;3.25;;;;;;;10.13;76.09;100983.59;1091581;46;20050;-77
2021/10/08 02:35:05;;;;;;;4.30;2.72;;;;;;;10.16;75.78;100988.69;1091755;46;20111;-77
2021/10/08 02:36:14;;;;;;;8.00;3.42;;;;;;;10.15;75.64;100985.16;1090104;46;20029;-77
2021/10/08 02:37:18;;;;;;;7.35;3.72;;;;;;;10.13;75.76;100981.75;1088473;54;20038;-77
2021/10/08 02:38:21;;;;;;;7.10;3.75;;;;;;;10.16;75.79;100986.00;1088393;54;20034;-78
2021/10/08 02:39:27;;;;;;;6.85;3.60;;;;;;;10.19;75.71;100982.25;1088438;54;20034;-77
2021/10/08 02:40:29;;;;;;;7.18;4.00;;;;;;;10.18;75.61;100980.56;1088450;54;20018;-77
2021/10/08 02:41:38;;;;;;;5.60;3.53;;;;;;;10.16;75.71;100986.00;1088537;54;20053;-80
2021/10/08 02:42:40;;;;;;;7.45;3.95;;;;;;;10.15;75.83;100990.50;1088380;54;20053;-78
2021/10/08 02:43:44;;;;;;;5.55;3.70;;;;;;;10.18;75.56;100986.75;1088449;54;20019;-78
2021/10/08 02:44:46;;;;;;;7.97;3.80;;;;;;;10.20;75.45;100979.47;1088291;54;20640;-78
2021/10/08 02:45:50;;;;;;;6.15;3.47;;;;;;;10.23;75.71;100981.03;1087348;54;20034;-77
2021/10/08 02:46:51;;;;;;;6.53;3.42;;;;;;;10.18;75.52;100992.09;1087758;54;20039;-76
2021/10/08 02:47:56;;;;;;;6.28;3.72;;;;;;;10.22;75.55;100990.91;1087724;54;20037;-77
2021/10/08 02:48:57;;;;;;;5.22;2.88;;;;;;;10.25;75.48;100987.13;1087787;54;20035;-78
2021/10/08 02:50:02;;;;;;;6.22;3.40;;;;;;;10.24;75.71;100993.44;1088193;39;20576;-77
2021/10/08 02:51:05;;;;;;;5.65;3.50;;;;;;;10.21;75.70;100980.31;1087967;39;20674;-76
2021/10/08 02:52:09;;;;;;;7.13;4.28;;;;;;;10.20;75.44;100981.31;1088228;54;20030;-77
2021/10/08 02:53:14;;;;;;;5.97;3.63;;;;;;;10.21;75.59;100991.84;1088126;54;20038;-77
2021/10/08 02:54:16;;;;;;;6.30;3.55;;;;;;;10.17;75.29;100993.06;1088386;46;20686;-77
2021/10/08 02:55:23;;;;;;;6.30;4.10;;;;;;;10.19;75.39;100987.63;1087865;54;20030;-76
2021/10/08 02:56:24;;;;;;;7.82;3.35;;;;;;;10.19;75.87;100988.44;1087708;54;20034;-78
2021/10/08 02:57:28;;;;;;;5.97;3.60;;;;;;;10.18;75.59;100986.75;1088817;39;20578;-78
2021/10/08 02:58:30;;;;;;;5.55;3.92;;;;;;;10.13;75.84;100986.25;1087913;54;20034;-77
2021/10/08 02:59:34;;;;;;;6.15;3.67;;;;;;;10.19;75.44;100982.25;1087741;54;20035;-78
2021/10/08 03:00:36;;;;;;;7.43;4.28;;;;;;;10.15;75.71;100987.00;1087793;54;20058;-76
2021/10/08 03:01:40;;;;;;;6.28;4.13;;;;;;;10.14;75.74;100996.00;1087709;54;20031;-77
2021/10/08 03:02:42;;;;;;;5.47;3.60;;;;;;;10.18;75.42;100988.59;1087730;54;20030;-78
2021/10/08 03:03:46;;;;;;;6.75;4.15;;;;;;;10.14;75.53;100985.31;1087796;54;20035;-79
2021/10/08 03:04:48;;;;;;;6.85;4.40;;;;;;;10.13;75.57;100991.59;1087825;54;20042;-77
2021/10/08 03:05:52;;;;;;;7.50;4.25;;;;;;;10.10;75.79;100992.69;1087682;54;20042;-78
2021/10/08 03:06:56;;;;;;;7.80;4.82;;;;;;;10.02;76.01;100991.59;1087650;54;20053;-77
2021/10/08 03:08:00;;;;;;;7.22;4.32;;;;;;;10.06;76.02;100991.22;1087806;54;20046;-77
2021/10/08 03:09:02;;;;;;;6.55;4.90;;;;;;;9.99;76.07;100990.00;1087734;54;20030;-77
2021/10/08 03:10:09;;;;;;;8.20;4.95;;;;;;;10.00;76.23;100999.72;1087795;54;20037;-77
2021/10/08 03:11:13;;;;;;;7.55;4.30;;;;;;;10.02;76.19;100996.91;1087755;54;20054;-76
2021/10/08 03:12:17;;;;;;;5.97;3.75;;;;;;;10.05;76.19;100994.03;1087700;54;20042;-78
2021/10/08 03:13:19;;;;;;;5.55;3.65;;;;;;;10.07;75.98;100998.28;1087424;54;20038;-78
2021/10/08 03:14:23;;;;;;;5.60;4.07;;;;;;;10.10;76.13;100999.84;1087756;54;20030;-77
2021/10/08 03:15:24;;;;;;;6.57;4.00;;;;;;;10.10;75.92;100991.84;1087507;54;20031;-78
2021/10/08 03:16:29;;;;;;;6.10;3.72;;;;;;;10.11;75.90;100993.53;1087730;54;20098;-77
2021/10/08 03:17:30;;;;;;;8.57;4.80;;;;;;;10.07;75.74;100995.59;1087769;54;20042;-78
2021/10/08 03:18:34;;;;;;;7.30;4.72;;;;;;;10.09;75.95;100999.00;1087668;54;20042;-77
2021/10/08 03:19:38;;;;;;;6.75;4.25;;;;;;;10.05;76.07;100996.69;1087729;54;20035;-78
2021/10/08 03:20:40;;;;;;;8.02;4.78;;;;;;;10.01;75.98;101000.56;1087717;54;20037;-78
2021/10/08 03:21:44;;;;;;;8.10;4.63;;;;;;;9.98;76.17;100998.97;1087755;54;20773;-78
2021/10/08 03:22:46;;;;;;;6.38;4.93;;;;;;;9.97;76.29;101007.97;1087803;54;20034;-78
2021/10/08 03:23:50;;;;;;;6.72;4.50;;;;;;;9.98;76.10;101001.66;1088608;39;20691;-78
2021/10/08 03:24:52;;;;;;;6.40;4.80;;;;;;;9.95;76.28;101007.22;1087733;54;20034;-78
2021/10/08 03:25:56;;;;;;;7.00;4.72;;;;;;;9.95;76.15;101012.56;1087653;54;20058;-77
2021/10/08 03:27:00;;;;;;;7.65;4.80;;;;;;;9.96;76.21;101006.25;1087750;54;20041;-78
2021/10/08 03:28:04;;;;;;;7.22;4.13;;;;;;;9.98;76.19;101007.00;1087751;54;20054;-77
2021/10/08 03:29:06;;;;;;;6.63;4.32;;;;;;;9.92;76.35;101010.16;1087584;54;20061;-76
2021/10/08 03:30:14;;;;;;;7.20;4.18;;;;;;;9.96;76.11;101009.78;1087743;54;20030;-78
2021/10/08 03:31:16;;;;;;;6.45;4.35;;;;;;;9.96;76.04;101007.13;1087709;54;20065;-78
2021/10/08 03:32:20;;;;;;;10.20;5.03;;;;;;;9.92;76.08;101010.16;1087728;54;20054;-78
2021/10/08 03:33:21;;;;;;;7.13;5.20;;;;;;;9.93;76.08;101011.81;1087721;54;20030;-78
2021/10/08 03:34:26;;;;;;;9.30;5.90;;;;;;;9.96;76.02;101006.25;1088714;46;20038;-77
2021/10/08 03:35:27;;;;;;;15.65;7.22;;;;;;;9.94;76.19;101008.19;1087711;54;20030;-77
2021/10/08 03:36:39;;;;;;;18.27;10.07;;;;;;;9.93;75.95;101009.16;1087766;54;20083;-78
2021/10/08 03:37:49;;;;;;;13.82;9.27;;;;;;;9.86;76.42;101015.94;1087688;54;20038;-77
2021/10/08 03:38:51;;;;;;;11.25;8.20;;;;;;;9.91;76.41;101016.44;1087671;54;20029;-78
2021/10/08 03:39:55;;;;;;;12.90;8.07;;;;;;;9.89;76.07;101018.38;1087616;54;20030;-77
2021/10/08 03:41:06;;;;;;;11.52;8.32;;;;;;;9.81;76.45;101011.81;1087660;54;20031;-78
2021/10/08 03:42:13;;;;;;;11.27;7.78;;;;;;;9.79;76.56;101024.41;1087710;54;20035;-78
2021/10/08 03:43:18;;;;;;;8.95;6.35;;;;;;;9.82;76.23;101018.81;1087708;54;20841;-77
2021/10/08 03:44:20;;;;;;;7.88;5.40;;;;;;;9.84;76.09;101014.22;1087692;54;20033;-78
2021/10/08 03:45:30;;;;;;;9.07;5.43;;;;;;;9.83;76.18;101009.84;1087568;54;20046;-78
2021/10/08 03:46:37;;;;;;;10.85;5.93;;;;;;;9.84;76.02;101016.91;1087639;54;20054;-78
2021/10/08 03:47:54;;;;;;;11.20;6.97;;;;;;;9.82;76.07;101013.47;1089150;39;20642;-78
2021/10/08 03:49:12;;;;;;;8.88;5.57;;;;;;;9.79;76.17;101013.75;1087647;54;20034;-77
2021/10/08 03:50:16;;;;;;;8.35;5.47;;;;;;;9.81;76.21;101011.81;1087598;54;20018;-78
2021/10/08 03:51:18;;;;;;;8.45;5.47;;;;;;;9.84;76.15;101013.38;1088522;39;20688;-77
2021/10/08 03:52:22;;;;;;;8.77;4.90;;;;;;;9.85;75.95;101015.09;1087682;54;20105;-77
2021/10/08 03:53:23;;;;;;;7.47;5.88;;;;;;;9.86;76.27;101013.25;1087730;54;20037;-77
2021/10/08 03:54:27;;;;;;;8.07;4.68;;;;;;;9.90;76.03;101017.41;1088003;39;20794;-78
2021/10/08 03:55:29;;;;;;;7.45;4.32;;;;;;;9.92;75.81;101018.16;1088512;39;20665;-78
2021/10/08 03:56:33;;;;;;;6.55;4.63;;;;;;;9.94;75.71;101013.53;1087628;54;20778;-77
2021/10/08 03:57:37;;;;;;;6.65;4.90;;;;;;;9.90;75.83;101004.06;1087680;54;20034;-78
2021/10/08 03:58:42;;;;;;;7.75;4.70;;;;;;;9.88;75.98;101008.66;1087671;54;20059;-78
2021/10/08 03:59:46;;;;;;;6.53;4.45;;;;;;;9.90;75.88;101009.41;1087749;54;20060;-78
2021/10/08 04:00:48;;;;;;;7.88;3.80;;;;;;;9.89;75.87;101010.38;1087658;54;20030;-78
2021/10/08 04:01:55;;;;;;;5.35;3.80;;;;;;;9.92;75.74;101015.50;1087588;54;20026;-77
2021/10/08 04:02:56;;;;;;;6.18;3.88;;;;;;;9.93;75.73;101006.47;1088581;39;20207;-78
2021/10/08 04:04:00;;;;;;;6.30;4.20;;;;;;;9.93;75.76;101015.38;1087717;54;20035;-77
2021/10/08 04:05:02;;;;;;;8.13;4.55;;;;;;;9.86;75.96;101013.25;1087765;54;20034;-78
2021/10/08 04:06:06;;;;;;;5.47;3.67;;;;;;;9.91;76.09;101014.63;1087743;54;21090;-78
2021/10/08 04:07:08;;;;;;;6.63;4.20;;;;;;;9.94;75.67;101016.19;1088648;46;20392;-78
2021/10/08 04:08:12;;;;;;;5.50;3.95;;;;;;;9.94;75.95;101010.84;1087752;54;20038;-79
2021/10/08 04:09:13;;;;;;;8.23;4.43;;;;;;;9.95;75.69;101009.88;1087763;54;20057;-78
2021/10/08 04:10:19;;;;;;;5.95;3.85;;;;;;;9.92;75.92;101012.81;1087819;54;20036;-77
2021/10/08 04:11:20;;;;;;;7.60;3.88;;;;;;;9.93;75.96;101014.50;1087808;54;20038;-78
2021/10/08 04:12:24;;;;;;;7.43;4.80;;;;;;;9.91;75.98;101014.63;1087784;54;20090;-78
2021/10/08 04:13:28;;;;;;;6.63;4.60;;;;;;;9.93;75.68;101017.16;1087675;54;20034;-77
2021/10/08 04:14:33;;;;;;;6.68;4.05;;;;;;;9.93;75.86;101015.38;1087731;54;20055;-78
2021/10/08 04:15:34;;;;;;;5.40;4.05;;;;;;;9.94;75.75;101017.06;1087443;54;20034;-78
2021/10/08 04:16:39;;;;;;;5.53;3.97;;;;;;;9.94;75.76;101014.41;1087781;54;20035;-77
2021/10/08 04:17:40;;;;;;;8.48;4.45;;;;;;;9.94;75.48;101021.53;1087765;54;20026;-78
2021/10/08 04:18:45;;;;;;;5.90;3.92;;;;;;;9.95;75.61;101016.09;1088059;46;20812;-79
2021/10/08 04:19:46;;;;;;;6.28;3.60;;;;;;;9.94;75.43;101017.06;1089130;39;20592;-78
2021/10/08 04:20:50;;;;;;;7.30;4.80;;;;;;;9.94;75.77;101010.84;1087674;54;20035;-79
2021/10/08 04:21:52;;;;;;;7.57;4.85;;;;;;;9.96;75.56;101019.63;1087638;54;20034;-78
2021/10/08 04:22:56;;;;;;;6.75;4.60;;;;;;;9.95;75.51;101015.22;1088589;39;20701;-78
2021/10/08 04:23:58;;;;;;;6.75;4.47;;;;;;;9.92;75.77;101013.66;1087606;54;20046;-77
2021/10/08 04:25:02;;;;;;;7.72;4.88;;;;;;;9.94;75.79;101016.19;1087692;54;20030;-78
2021/10/08 04:26:06;;;;;;;6.80;4.47;;;;;;;9.98;75.60;101012.34;1087627;54;20046;-78
2021/10/08 04:27:08;;;;;;;6.72;5.10;;;;;;;9.94;75.73;101013.53;1087668;54;20038;-77
2021/10/08 04:28:12;;;;;;;8.27;5.28;;;;;;;9.94;75.41;101013.53;1087696;54;20030;-78
2021/10/08 04:29:16;;;;;;;6.65;4.53;;;;;;;9.95;75.38;101018.78;1087603;54;20061;-78
2021/10/08 04:30:21;;;;;;;7.30;5.40;;;;;;;9.91;75.59;101017.28;1092722;39;21024;-78
2021/10/08 04:31:25;;;;;;;6.47;4.65;;;;;;;9.93;75.46;101010.03;1087657;54;20061;-78
2021/10/08 04:32:26;;;;;;;6.45;4.70;;;;;;;9.96;75.46;101012.47;1087644;54;20053;-78
2021/10/08 04:33:31;;;;;;;7.07;4.88;;;;;;;9.97;75.45;101015.97;1087693;54;20031;-77
2021/10/08 04:34:32;;;;;;;6.40;4.80;;;;;;;9.98;75.47;101012.34;1087593;54;20045;-78
2021/10/08 04:35:37;;;;;;;8.35;4.82;;;;;;;9.96;75.38;101012.47;1087628;54;20034;-78
2021/10/08 04:36:41;;;;;;;6.30;4.60;;;;;;;9.96;75.30;101015.13;1087628;54;20053;-78
2021/10/08 04:37:43;;;;;;;8.90;5.18;;;;;;;9.93;75.36;101011.81;1087577;54;20892;-78
2021/10/08 04:38:47;;;;;;;6.65;4.32;;;;;;;9.96;75.32;101016.94;1089514;39;20575;-78
2021/10/08 04:39:49;;;;;;;9.45;5.85;;;;;;;9.91;75.71;101013.78;1087603;54;20041;-77
2021/10/08 04:40:53;;;;;;;7.03;5.55;;;;;;;9.89;75.71;101011.22;1087547;54;20030;-78
2021/10/08 04:41:54;;;;;;;8.80;5.55;;;;;;;9.83;75.74;101011.69;1087690;54;20034;-78
2021/10/08 04:42:58;;;;;;;9.07;5.63;;;;;;;9.83;75.91;101019.69;1087673;54;20034;-78
2021/10/08 04:44:03;;;;;;;11.70;5.68;;;;;;;9.77;75.71;101007.66;1087595;54;20038;-78
2021/10/08 04:45:08;;;;;;;7.05;5.07;;;;;;;9.77;76.10;101012.16;1087566;54;20038;-77
2021/10/08 04:46:13;;;;;;;5.78;4.63;;;;;;;9.80;75.87;101010.09;1087464;54;20031;-77
2021/10/08 04:47:14;;;;;;;7.90;5.25;;;;;;;9.80;76.01;101015.44;1089410;39;20896;-78
2021/10/08 04:48:19;;;;;;;7.40;5.63;;;;;;;9.81;75.75;101016.28;1087634;54;20034;-78
2021/10/08 04:49:20;;;;;;;7.28;4.90;;;;;;;9.82;75.72;101007.31;1087542;54;20809;-78
2021/10/08 04:50:24;;;;;;;7.20;5.18;;;;;;;9.84;75.95;101010.72;1087568;54;20057;-79
2021/10/08 04:51:26;;;;;;;6.60;4.78;;;;;;;9.88;75.71;101008.66;1087531;54;20813;-78
2021/10/08 04:52:30;;;;;;;8.05;5.32;;;;;;;9.81;75.67;101017.16;1087632;54;20034;-78
2021/10/08 04:53:32;;;;;;;9.93;5.72;;;;;;;9.79;75.84;101016.41;1087599;54;20035;-79
2021/10/08 04:54:37;;;;;;;8.55;5.45;;;;;;;9.83;75.72;101009.84;1087695;54;20038;-78
2021/10/08 04:55:39;;;;;;;7.35;5.45;;;;;;;9.80;75.82;101015.44;1087620;54;20102;-78
2021/10/08 04:56:43;;;;;;;10.43;5.78;;;;;;;9.74;76.17;101015.06;1087623;54;20034;-78
2021/10/08 04:57:45;;;;;;;10.18;5.63;;;;;;;9.77;76.01;101018.34;1087583;54;20039;-78